Time;durP1;ratioP1;P1;durP2;ratioP2;P2;SDS_P1;SDS_P2;PMS_P1;PMS_P2;Temp;Humidity;BMP_temperature;BMP_pressure;BME280_temperature;BME280_humidity;BME280_pressure;Samples;Min_cycle;Max_cycle;Signal;HPM_P1;HPM_P2
2021/01/16 00:00:55;;;;;;;30.07;17.03;;;-5.50;99.90;;;;;;5041614;28;20220;-80
2021/01/16 00:03:21;;;;;;;29.30;17.17;;;-5.50;99.90;;;;;;5043023;28;20180;-79
2021/01/16 00:05:48;;;;;;;30.13;17.37;;;-5.50;99.90;;;;;;5043696;28;20320;-80
2021/01/16 00:08:16;;;;;;;28.80;17.50;;;-5.50;99.90;;;;;;5043141;28;20237;-80
2021/01/16 00:10:50;;;;;;;30.07;16.83;;;-5.40;99.90;;;;;;5044633;28;20228;-80
2021/01/16 00:13:18;;;;;;;31.17;17.17;;;-5.30;99.90;;;;;;5042612;28;20280;-78
2021/01/16 00:15:45;;;;;;;31.50;17.90;;;-5.40;99.90;;;;;;5045683;28;20194;-79
2021/01/16 00:18:25;;;;;;;27.70;17.23;;;-5.50;99.90;;;;;;5042005;28;20638;-80
2021/01/16 00:20:58;;;;;;;26.80;16.33;;;-5.50;99.90;;;;;;5040673;28;20202;-79
2021/01/16 00:23:25;;;;;;;25.20;15.97;;;-5.60;99.90;;;;;;5041870;28;20177;-80
2021/01/16 00:25:51;;;;;;;26.63;16.40;;;-5.60;99.90;;;;;;5043592;28;20206;-79
2021/01/16 00:28:28;;;;;;;26.23;17.17;;;-5.50;99.90;;;;;;5032946;28;20226;-78
2021/01/16 00:30:54;;;;;;;30.43;16.93;;;-5.50;99.90;;;;;;5021698;28;20198;-78
2021/01/16 00:33:22;;;;;;;27.23;17.23;;;-5.60;99.90;;;;;;5040445;28;20262;-79
2021/01/16 00:35:59;;;;;;;;;;;;;;;;;;;;;
2021/01/16 00:38:27;;;;;;;28.73;16.93;;;-5.60;99.90;;;;;;5037406;28;20261;-79
2021/01/16 00:40:56;;;;;;;27.40;16.67;;;-5.60;99.90;;;;;;5041306;28;20190;-79
2021/01/16 00:43:23;;;;;;;29.00;17.10;;;-5.70;99.90;;;;;;5041192;28;20619;-79
2021/01/16 00:45:49;;;;;;;27.40;16.87;;;-5.70;99.90;;;;;;5041806;28;20228;-78
2021/01/16 00:48:23;;;;;;;28.40;17.50;;;-5.70;99.90;;;;;;5041598;28;20189;-80
2021/01/16 00:50:51;;;;;;;30.87;17.50;;;-5.80;99.90;;;;;;5039553;28;20213;-77
2021/01/16 00:53:17;;;;;;;25.40;16.40;;;-5.60;99.90;;;;;;5024403;28;20189;-79
2021/01/16 00:55:43;;;;;;;29.23;17.07;;;-5.60;99.90;;;;;;5041912;28;20194;-78
2021/01/16 00:58:10;;;;;;;32.10;17.77;;;-5.60;99.90;;;;;;5040400;28;20174;-79
2021/01/16 01:00:37;;;;;;;26.80;16.43;;;-5.60;99.90;;;;;;5038636;28;20210;-77
2021/01/16 01:03:04;;;;;;;25.40;16.27;;;-5.70;99.90;;;;;;5039515;28;20197;-79
2021/01/16 01:05:30;;;;;;;27.73;17.23;;;-5.60;99.90;;;;;;5041085;28;20190;-79
2021/01/16 01:07:55;;;;;;;23.03;15.00;;;-5.60;99.90;;;;;;5022586;28;20185;-79
2021/01/16 01:10:34;;;;;;;29.20;17.43;;;-5.40;99.90;;;;;;5040908;28;20210;-78
2021/01/16 01:13:00;;;;;;;31.33;18.37;;;-5.40;99.90;;;;;;5039349;28;20182;-78
2021/01/16 01:15:28;;;;;;;29.00;18.30;;;-5.40;99.90;;;;;;5039310;28;20571;-78
2021/01/16 01:17:57;;;;;;;34.10;19.40;;;-5.40;99.90;;;;;;5040367;28;20257;-79
2021/01/16 01:20:24;;;;;;;30.67;17.67;;;-5.40;99.90;;;;;;5040680;28;20194;-78
2021/01/16 01:22:50;;;;;;;27.90;17.50;;;-5.50;99.90;;;;;;5040027;28;20174;-79
2021/01/16 01:25:17;;;;;;;31.63;18.73;;;-5.40;99.90;;;;;;5022615;28;20189;-78
2021/01/16 01:27:47;;;;;;;30.37;18.07;;;-5.40;99.90;;;;;;5013201;28;20187;-79
2021/01/16 01:30:14;;;;;;;28.97;17.57;;;-5.40;99.90;;;;;;5039738;28;20201;-79
2021/01/16 01:32:43;;;;;;;30.37;18.63;;;-5.30;99.90;;;;;;5021999;28;20274;-79
2021/01/16 01:35:10;;;;;;;33.97;19.90;;;-5.30;99.90;;;;;;5020742;28;20276;-79
2021/01/16 01:37:43;;;;;;;34.30;20.20;;;-5.30;99.90;;;;;;5039637;28;20178;-78
2021/01/16 01:40:11;;;;;;;33.00;20.13;;;-5.40;99.90;;;;;;5038250;28;20241;-78
2021/01/16 01:42:38;;;;;;;34.20;19.57;;;-5.40;99.90;;;;;;5036682;28;20676;-78
2021/01/16 01:45:09;;;;;;;31.93;18.43;;;-5.40;99.90;;;;;;5038348;28;20182;-79
2021/01/16 01:47:40;;;;;;;33.63;19.60;;;-5.40;99.90;;;;;;5038309;28;20183;-78
2021/01/16 01:50:07;;;;;;;33.57;19.63;;;-5.30;99.90;;;;;;5064197;23;20320;-77
2021/01/16 01:52:36;;;;;;;31.07;18.83;;;-5.30;99.90;;;;;;5053329;28;20227;-77
2021/01/16 01:55:07;;;;;;;35.10;19.70;;;-5.30;99.90;;;;;;5053217;28;20205;-77
2021/01/16 01:57:36;;;;;;;35.03;20.17;;;-5.30;99.90;;;;;;5052026;28;20253;-77
2021/01/16 02:00:07;;;;;;;40.47;22.43;;;-5.20;99.90;;;;;;5051550;28;20267;-76
2021/01/16 02:02:35;;;;;;;33.60;19.47;;;-5.20;99.90;;;;;;5053235;28;20170;-77
2021/01/16 02:05:06;;;;;;;36.37;19.93;;;-5.20;99.90;;;;;;5053220;28;20546;-77
2021/01/16 02:07:37;;;;;;;40.53;21.67;;;-5.20;99.90;;;;;;5053403;28;20184;-77
2021/01/16 02:10:10;;;;;;;34.13;19.87;;;-5.20;99.90;;;;;;5052009;28;20255;-76
2021/01/16 02:12:39;;;;;;;32.97;19.73;;;-5.20;99.90;;;;;;5052979;28;20208;-77
2021/01/16 02:15:32;;;;;;;36.27;18.97;;;-5.10;99.90;;;;;;5052945;28;20202;-77
2021/01/16 02:18:04;;;;;;;37.57;20.30;;;-5.10;99.90;;;;;;5053457;28;20536;-76
2021/01/16 02:20:35;;;;;;;33.87;19.73;;;-5.10;99.90;;;;;;5053677;28;20216;-76
2021/01/16 02:23:06;;;;;;;35.00;19.80;;;-5.10;99.90;;;;;;5059647;28;20170;-76
2021/01/16 02:25:42;;;;;;;34.33;20.50;;;-5.10;99.90;;;;;;5059818;28;20181;-76
2021/01/16 02:28:09;;;;;;;38.83;20.93;;;-5.10;99.90;;;;;;5059398;28;20177;-77
2021/01/16 02:30:46;;;;;;;40.63;21.40;;;-5.10;99.90;;;;;;5061471;28;20209;-76
2021/01/16 02:33:16;;;;;;;36.47;20.27;;;-5.00;99.90;;;;;;5059519;28;20226;-76
2021/01/16 02:36:08;;;;;;;39.80;20.83;;;-5.00;99.90;;;;;;5047262;28;20687;-77
2021/01/16 02:38:49;;;;;;;36.67;19.57;;;-5.00;99.90;;;;;;5057507;28;20192;-77
2021/01/16 02:41:40;;;;;;;41.10;20.17;;;-5.00;99.90;;;;;;5058206;28;20219;-77
2021/01/16 02:44:17;;;;;;;38.03;20.17;;;-5.00;99.90;;;;;;5058125;28;20166;-77
2021/01/16 02:46:48;;;;;;;34.17;19.67;;;-4.90;99.90;;;;;;5059761;28;20177;-77
2021/01/16 02:49:22;;;;;;;38.73;19.57;;;-4.90;99.90;;;;;;5058528;28;20248;-77
2021/01/16 02:52:01;;;;;;;34.30;20.37;;;-4.90;99.90;;;;;;5058215;28;20212;-77
2021/01/16 02:54:28;;;;;;;34.53;19.40;;;-4.90;99.90;;;;;;5059536;28;20272;-76
2021/01/16 02:56:54;;;;;;;27.73;18.23;;;-4.90;99.90;;;;;;5058092;28;20185;-77
2021/01/16 02:59:20;;;;;;;33.37;19.30;;;-4.80;99.90;;;;;;5059504;28;20166;-76
2021/01/16 03:01:47;;;;;;;31.27;18.60;;;-4.80;99.90;;;;;;5059476;28;20224;-77
2021/01/16 03:04:13;;;;;;;32.70;18.40;;;-4.70;99.90;;;;;;5058123;28;20180;-77
2021/01/16 03:06:46;;;;;;;27.73;17.80;;;-4.70;99.90;;;;;;5059244;28;20170;-76
2021/01/16 03:09:13;;;;;;;32.03;18.80;;;-4.70;99.90;;;;;;5059153;28;20170;-77
2021/01/16 03:11:39;;;;;;;32.17;19.20;;;-4.60;99.90;;;;;;5059263;28;20557;-77
2021/01/16 03:14:07;;;;;;;29.93;18.10;;;-4.60;99.90;;;;;;5059271;28;20177;-77
2021/01/16 03:16:37;;;;;;;31.37;18.77;;;-4.50;99.90;;;;;;5059402;28;20181;-77
2021/01/16 03:19:07;;;;;;;32.47;18.43;;;-4.50;99.90;;;;;;5059206;28;20177;-76
2021/01/16 03:21:38;;;;;;;30.13;18.53;;;-4.50;99.90;;;;;;5057764;28;20186;-77
2021/01/16 03:24:04;;;;;;;36.80;20.40;;;-4.50;99.90;;;;;;5059106;28;20644;-77
2021/01/16 03:26:30;;;;;;;34.33;19.73;;;-4.50;99.90;;;;;;5057837;28;20178;-77
2021/01/16 03:28:56;;;;;;;33.03;19.30;;;-4.50;99.90;;;;;;5059217;28;20181;-76
2021/01/16 03:31:22;;;;;;;32.93;19.10;;;-4.50;99.90;;;;;;5059125;28;20198;-76
2021/01/16 03:33:48;;;;;;;33.03;18.77;;;-4.50;99.90;;;;;;5055388;28;20543;-77
2021/01/16 03:36:13;;;;;;;32.83;18.73;;;-4.50;99.90;;;;;;5055868;28;20201;-77
2021/01/16 03:38:39;;;;;;;32.60;19.30;;;-4.50;99.90;;;;;;5054242;28;20174;-77
2021/01/16 03:41:05;;;;;;;31.60;17.97;;;-4.40;99.90;;;;;;5055938;28;20315;-76
2021/01/16 03:43:31;;;;;;;34.83;19.10;;;-4.40;99.90;;;;;;5056004;28;20216;-77
2021/01/16 03:45:57;;;;;;;33.93;20.00;;;-4.30;99.90;;;;;;5055628;28;20166;-77
2021/01/16 03:48:23;;;;;;;33.23;17.93;;;-4.30;99.90;;;;;;5055927;28;20570;-77
2021/01/16 03:50:48;;;;;;;40.23;20.83;;;-4.30;99.90;;;;;;5054238;28;20224;-77
2021/01/16 03:53:14;;;;;;;35.37;20.33;;;-4.30;99.90;;;;;;5055775;28;20275;-76
2021/01/16 03:55:40;;;;;;;35.63;20.07;;;-4.30;99.90;;;;;;5055279;28;20735;-77
2021/01/16 03:58:06;;;;;;;35.53;20.23;;;-4.30;99.90;;;;;;5055342;28;20281;-77
2021/01/16 04:00:32;;;;;;;38.03;19.47;;;-4.40;99.90;;;;;;5050323;28;20280;-77
2021/01/16 04:02:57;;;;;;;41.30;20.23;;;-4.30;99.90;;;;;;5055283;28;20210;-76
2021/01/16 04:05:23;;;;;;;37.90;20.90;;;-4.30;99.90;;;;;;5055335;28;20210;-77
2021/01/16 04:07:50;;;;;;;36.87;19.83;;;-4.30;99.90;;;;;;5055200;28;20228;-77
2021/01/16 04:10:16;;;;;;;38.47;20.90;;;-4.30;99.90;;;;;;5055044;28;20548;-77
2021/01/16 04:12:41;;;;;;;33.50;19.03;;;-4.30;99.90;;;;;;5037300;28;20203;-76
2021/01/16 04:15:08;;;;;;;35.90;19.33;;;-4.30;99.90;;;;;;5055062;28;20775;-76
2021/01/16 04:17:34;;;;;;;38.37;20.93;;;-4.30;99.90;;;;;;5055421;28;20586;-76
2021/01/16 04:20:00;;;;;;;36.17;20.03;;;-4.30;99.90;;;;;;5054841;28;20170;-77
2021/01/16 04:22:26;;;;;;;34.03;18.80;;;-4.30;99.90;;;;;;5054172;28;20177;-77
2021/01/16 04:24:51;;;;;;;33.90;20.17;;;-4.30;99.90;;;;;;5054913;28;20174;-77
2021/01/16 04:27:17;;;;;;;28.73;17.07;;;-4.30;99.90;;;;;;5055080;28;20368;-77
2021/01/16 04:29:43;;;;;;;30.00;18.50;;;-4.30;99.90;;;;;;5053620;28;20256;-77
2021/01/16 04:32:09;;;;;;;29.40;17.03;;;-4.30;99.90;;;;;;5054791;28;20668;-77
2021/01/16 04:34:34;;;;;;;30.57;18.37;;;-4.20;99.90;;;;;;5053342;28;20276;-77
2021/01/16 04:37:00;;;;;;;27.53;17.20;;;-4.10;99.90;;;;;;5054660;28;20173;-77
2021/01/16 04:39:26;;;;;;;28.57;17.23;;;-4.10;99.90;;;;;;5054939;28;20174;-77
2021/01/16 04:41:56;;;;;;;29.50;18.73;;;-4.00;99.90;;;;;;5053634;28;20209;-77
2021/01/16 04:44:43;;;;;;;28.80;17.70;;;-4.10;99.90;;;;;;5054197;28;20549;-76
2021/01/16 04:47:17;;;;;;;29.73;18.17;;;-4.00;99.90;;;;;;5054487;28;20675;-77
2021/01/16 04:49:43;;;;;;;28.47;18.77;;;-4.00;99.90;;;;;;5053221;28;20196;-77
2021/01/16 04:52:11;;;;;;;32.77;19.03;;;-4.00;99.90;;;;;;5052938;28;20221;-77
2021/01/16 04:54:40;;;;;;;31.93;18.43;;;-3.90;99.90;;;;;;5054584;28;20271;-76
2021/01/16 04:57:06;;;;;;;34.17;20.37;;;-3.90;99.90;;;;;;5054433;28;20536;-77
2021/01/16 04:59:34;;;;;;;31.23;17.70;;;-3.90;99.90;;;;;;5054518;28;20170;-77
2021/01/16 05:02:09;;;;;;;31.40;19.90;;;-3.80;99.90;;;;;;5041411;28;20195;-77
2021/01/16 05:04:38;;;;;;;33.50;20.10;;;-3.80;99.90;;;;;;5055497;28;20194;-77
2021/01/16 05:07:09;;;;;;;33.17;19.07;;;-3.80;99.90;;;;;;5052268;28;20192;-77
2021/01/16 05:09:39;;;;;;;33.30;19.77;;;-3.90;99.90;;;;;;5052769;28;20629;-77
2021/01/16 05:12:26;;;;;;;35.90;19.53;;;-3.90;99.90;;;;;;5051818;28;20201;-76
2021/01/16 05:15:03;;;;;;;36.93;19.13;;;-4.00;99.90;;;;;;5053767;28;20218;-77
2021/01/16 05:17:31;;;;;;;32.53;18.80;;;-4.00;99.90;;;;;;5053634;28;20720;-77
2021/01/16 05:19:59;;;;;;;33.07;18.57;;;-4.00;99.90;;;;;;5054066;28;20240;-77
2021/01/16 05:22:27;;;;;;;34.87;19.60;;;-4.10;99.90;;;;;;5054076;28;20256;-77
2021/01/16 05:24:52;;;;;;;37.23;19.70;;;-4.10;99.90;;;;;;5053854;28;20249;-76
2021/01/16 05:27:20;;;;;;;36.83;20.10;;;-4.10;99.90;;;;;;5053692;28;20197;-77
2021/01/16 05:29:46;;;;;;;36.13;19.70;;;-4.10;99.90;;;;;;5053673;28;20652;-76
2021/01/16 05:32:14;;;;;;;33.10;19.23;;;-4.20;99.90;;;;;;5052685;28;20560;-77
2021/01/16 05:34:40;;;;;;;36.00;19.53;;;-4.20;99.90;;;;;;5053524;28;20189;-77
2021/01/16 05:37:06;;;;;;;36.87;19.87;;;-4.20;99.90;;;;;;5053561;28;20182;-77
2021/01/16 05:39:33;;;;;;;37.97;20.50;;;-4.10;99.90;;;;;;5053844;28;20178;-77
2021/01/16 05:42:02;;;;;;;39.77;21.60;;;-4.10;99.90;;;;;;5053298;28;20202;-77
2021/01/16 05:44:28;;;;;;;32.83;19.63;;;-4.00;99.90;;;;;;5053508;28;20169;-76
2021/01/16 05:46:55;;;;;;;37.73;21.13;;;-4.00;99.90;;;;;;5052736;28;20256;-77
2021/01/16 05:49:22;;;;;;;40.23;22.80;;;-4.00;99.90;;;;;;5051941;28;20215;-76
2021/01/16 05:51:49;;;;;;;46.13;23.33;;;-4.00;99.90;;;;;;5052035;28;20692;-77
2021/01/16 05:54:17;;;;;;;48.33;23.07;;;-4.00;99.90;;;;;;5053206;28;20570;-76
2021/01/16 05:56:44;;;;;;;42.57;22.33;;;-4.00;99.90;;;;;;5052578;28;20196;-77
2021/01/16 05:59:16;;;;;;;38.40;21.17;;;-4.00;99.90;;;;;;5053251;28;20162;-77
2021/01/16 06:01:45;;;;;;;39.27;22.07;;;-4.00;99.90;;;;;;5051968;28;20190;-77
2021/01/16 06:04:18;;;;;;;43.43;22.77;;;-3.90;99.90;;;;;;5053183;28;20174;-77
2021/01/16 06:06:44;;;;;;;49.13;24.30;;;-3.80;99.90;;;;;;5049062;28;20570;-77
2021/01/16 06:09:19;;;;;;;49.90;25.83;;;-3.80;99.90;;;;;;5053486;28;20554;-77
2021/01/16 06:11:47;;;;;;;48.63;24.57;;;-3.80;99.90;;;;;;5053301;28;20235;-77
2021/01/16 06:14:13;;;;;;;52.70;26.00;;;-3.80;99.90;;;;;;5052993;28;20201;-76
2021/01/16 06:16:55;;;;;;;52.47;26.83;;;-3.70;99.90;;;;;;5053109;28;20637;-77
2021/01/16 06:19:25;;;;;;;52.07;25.67;;;-3.70;99.90;;;;;;5051766;28;20174;-77
2021/01/16 06:21:52;;;;;;;49.77;25.03;;;-3.70;99.90;;;;;;5053182;28;20194;-76
2021/01/16 06:24:20;;;;;;;55.00;25.83;;;-3.70;99.90;;;;;;5053155;28;20169;-77
2021/01/16 06:26:57;;;;;;;46.97;24.77;;;-3.70;99.90;;;;;;5052897;28;20173;-77
2021/01/16 06:29:25;;;;;;;54.33;25.97;;;-3.60;99.90;;;;;;5053442;28;20215;-77
2021/01/16 06:31:52;;;;;;;51.67;25.23;;;-3.60;99.90;;;;;;5052713;28;20684;-77
2021/01/16 06:34:32;;;;;;;47.63;25.23;;;-3.60;99.90;;;;;;5053089;28;20228;-77
2021/01/16 06:37:06;;;;;;;55.13;26.47;;;-3.60;99.90;;;;;;5052872;28;20170;-77
2021/01/16 06:39:35;;;;;;;53.33;26.50;;;-3.60;99.90;;;;;;5052897;28;20169;-77
2021/01/16 06:42:07;;;;;;;66.60;30.20;;;-3.70;99.90;;;;;;5051321;28;20614;-77
2021/01/16 06:44:32;;;;;;;55.30;26.80;;;-3.80;99.90;;;;;;5052026;28;20537;-77
2021/01/16 06:46:59;;;;;;;58.80;28.03;;;-3.90;99.90;;;;;;5053129;28;20514;-77
2021/01/16 06:49:26;;;;;;;55.10;26.57;;;-4.10;99.90;;;;;;5041073;28;20163;-77
2021/01/16 06:52:00;;;;;;;55.17;27.67;;;-4.00;99.90;;;;;;5055880;28;20209;-77
2021/01/16 06:54:34;;;;;;;57.03;27.87;;;-4.10;99.90;;;;;;5055399;28;20201;-76
2021/01/16 06:57:10;;;;;;;67.53;31.37;;;-4.20;99.90;;;;;;5053029;28;20249;-77
2021/01/16 06:59:38;;;;;;;72.40;33.10;;;-4.20;99.90;;;;;;5053157;28;20193;-77
2021/01/16 07:02:38;;;;;;;49.37;24.07;;;-4.30;99.90;;;;;;5052676;28;20189;-77
2021/01/16 07:05:10;;;;;;;53.80;26.37;;;-4.30;99.90;;;;;;5052949;28;20178;-77
2021/01/16 07:07:40;;;;;;;48.07;23.57;;;-4.40;99.90;;;;;;5054170;28;20177;-77
2021/01/16 07:10:17;;;;;;;61.07;27.87;;;-4.40;99.90;;;;;;5055060;28;20200;-77
2021/01/16 07:12:48;;;;;;;56.30;27.57;;;-4.50;99.90;;;;;;5056324;28;20300;-77
2021/01/16 07:15:16;;;;;;;51.10;25.13;;;-4.60;99.90;;;;;;5056303;28;20221;-77
2021/01/16 07:17:43;;;;;;;49.50;25.00;;;-4.70;99.90;;;;;;5056545;28;20197;-76
2021/01/16 07:20:09;;;;;;;57.00;28.67;;;-4.70;99.90;;;;;;5056273;28;20208;-76
2021/01/16 07:22:38;;;;;;;53.83;25.43;;;-4.80;99.90;;;;;;5056526;28;20178;-77
2021/01/16 07:25:08;;;;;;;50.80;23.53;;;-4.80;99.90;;;;;;5056445;28;20170;-76
2021/01/16 07:27:39;;;;;;;50.23;24.53;;;-4.80;99.90;;;;;;5056020;28;20652;-77
2021/01/16 07:30:07;;;;;;;52.17;25.17;;;-4.70;99.90;;;;;;5055925;28;20174;-77
2021/01/16 07:32:40;;;;;;;50.00;25.27;;;-4.70;99.90;;;;;;5056057;28;20208;-76
2021/01/16 07:35:08;;;;;;;51.57;25.57;;;-4.70;99.90;;;;;;5056131;28;20197;-77
2021/01/16 07:37:35;;;;;;;52.17;26.43;;;-4.70;99.90;;;;;;5056639;28;20255;-77
2021/01/16 07:40:03;;;;;;;56.37;25.37;;;-4.60;99.90;;;;;;5055784;28;20204;-76
2021/01/16 07:42:31;;;;;;;58.50;25.40;;;-4.60;99.90;;;;;;5045611;28;20170;-76
2021/01/16 07:45:08;;;;;;;56.53;27.47;;;-4.70;99.90;;;;;;5055732;28;20170;-76
2021/01/16 07:47:40;;;;;;;82.97;34.97;;;-4.70;99.90;;;;;;5055617;28;20253;-76
2021/01/16 07:50:15;;;;;;;67.93;29.87;;;-4.60;99.90;;;;;;5055583;28;20264;-77
2021/01/16 07:52:43;;;;;;;57.23;27.37;;;-4.60;99.90;;;;;;5057492;22;20232;-78
2021/01/16 07:55:09;;;;;;;60.27;26.57;;;-4.60;99.90;;;;;;5046221;28;20205;-79
2021/01/16 07:57:35;;;;;;;56.93;26.83;;;-4.50;99.90;;;;;;5044357;28;20166;-80
2021/01/16 08:00:05;;;;;;;50.20;25.57;;;-4.50;99.90;;;;;;5040562;28;20194;-78
2021/01/16 08:02:34;;;;;;;52.10;25.03;;;-4.50;99.90;;;;;;5039545;28;20202;-78
2021/01/16 08:05:16;;;;;;;55.13;27.17;;;-4.50;99.90;;;;;;5041066;28;20225;-79
2021/01/16 08:07:59;;;;;;;49.40;25.07;;;-4.40;99.90;;;;;;5022762;28;20175;-79
2021/01/16 08:10:25;;;;;;;50.90;25.83;;;-4.40;99.90;;;;;;5043342;28;20182;-78
2021/01/16 08:12:57;;;;;;;50.43;25.10;;;-4.30;99.90;;;;;;5047576;28;20696;-78
2021/01/16 08:15:29;;;;;;;49.27;26.30;;;-4.20;99.90;;;;;;5044606;28;20218;-78
2021/01/16 08:18:00;;;;;;;54.23;26.80;;;-4.20;99.90;;;;;;5028978;28;20554;-78
2021/01/16 08:20:34;;;;;;;48.07;25.17;;;-4.20;99.90;;;;;;5045570;28;20170;-78
2021/01/16 08:23:03;;;;;;;49.37;25.50;;;-4.20;99.90;;;;;;5029391;28;20197;-77
2021/01/16 08:25:32;;;;;;;44.57;23.77;;;-4.30;99.90;;;;;;5046222;28;20193;-78
2021/01/16 08:27:59;;;;;;;49.77;25.43;;;-4.30;99.90;;;;;;5019857;28;20190;-78
2021/01/16 08:30:31;;;;;;;47.33;23.07;;;-4.30;99.90;;;;;;5041703;28;20261;-77
2021/01/16 08:33:03;;;;;;;50.90;24.80;;;-4.30;99.90;;;;;;5018137;28;20550;-77
2021/01/16 08:35:38;;;;;;;51.83;26.60;;;-4.30;99.90;;;;;;5035392;28;20677;-78
2021/01/16 08:38:16;;;;;;;53.37;26.07;;;-4.30;99.90;;;;;;5035457;28;20181;-77
2021/01/16 08:40:55;;;;;;;49.87;23.97;;;-4.30;99.90;;;;;;5036332;28;20556;-78
2021/01/16 08:43:44;;;;;;;47.17;23.77;;;-4.30;99.90;;;;;;5020487;28;20170;-77
2021/01/16 08:46:14;;;;;;;51.37;25.53;;;-4.20;99.90;;;;;;5022428;28;20254;-78
2021/01/16 08:48:41;;;;;;;52.10;26.30;;;-4.10;99.90;;;;;;5017111;28;20197;-78
2021/01/16 08:51:33;;;;;;;57.00;26.57;;;-4.10;99.90;;;;;;5014709;28;20218;-78
2021/01/16 08:54:15;;;;;;;56.13;26.97;;;-4.10;99.90;;;;;;5013928;28;20253;-77
2021/01/16 08:56:46;;;;;;;47.60;24.37;;;-4.00;99.90;;;;;;5025245;28;20245;-78
2021/01/16 08:59:21;;;;;;;48.57;25.57;;;-4.00;99.90;;;;;;5033652;28;20269;-78
2021/01/16 09:01:50;;;;;;;43.70;23.40;;;-3.90;99.90;;;;;;5037104;28;20229;-78
2021/01/16 09:04:18;;;;;;;53.33;26.67;;;-3.80;99.90;;;;;;5036942;28;20237;-78
2021/01/16 09:06:43;;;;;;;45.43;25.40;;;-3.80;99.90;;;;;;5036701;28;20704;-78
2021/01/16 09:09:11;;;;;;;45.00;23.43;;;-3.70;99.90;;;;;;5036184;28;20206;-78
2021/01/16 09:11:37;;;;;;;45.17;23.80;;;-3.70;99.90;;;;;;5027349;28;20205;-77
2021/01/16 09:14:03;;;;;;;46.23;24.43;;;-3.70;99.90;;;;;;5018078;28;20186;-77
2021/01/16 09:16:37;;;;;;;47.90;25.73;;;-3.70;99.90;;;;;;5036175;28;20190;-78
2021/01/16 09:19:04;;;;;;;49.07;25.47;;;-3.70;99.90;;;;;;5036038;28;20186;-78
2021/01/16 09:21:30;;;;;;;47.53;25.83;;;-3.60;99.90;;;;;;5035556;28;20220;-78
2021/01/16 09:23:56;;;;;;;49.77;25.03;;;-3.60;99.90;;;;;;5035792;28;20233;-78
2021/01/16 09:26:24;;;;;;;41.97;22.77;;;-3.50;99.90;;;;;;5034875;28;20186;-77
2021/01/16 09:28:59;;;;;;;45.70;23.50;;;-3.60;99.90;;;;;;5009121;28;20266;-79
2021/01/16 09:31:39;;;;;;;49.17;25.17;;;-3.70;99.90;;;;;;5034104;28;20660;-77
2021/01/16 09:34:23;;;;;;;44.80;23.43;;;-3.60;99.90;;;;;;5035818;28;20198;-78
2021/01/16 09:36:55;;;;;;;46.10;23.97;;;-3.70;99.90;;;;;;5034319;28;20174;-78
2021/01/16 09:39:31;;;;;;;46.63;24.40;;;-3.60;99.90;;;;;;5034490;28;20170;-80
2021/01/16 09:41:59;;;;;;;44.40;23.90;;;-3.50;99.90;;;;;;5030244;28;20198;-78
2021/01/16 09:44:43;;;;;;;45.93;24.30;;;-3.50;99.90;;;;;;5007514;28;20218;-77
2021/01/16 09:47:26;;;;;;;43.97;23.50;;;-3.50;99.90;;;;;;5001640;28;20183;-78
2021/01/16 09:50:06;;;;;;;43.33;24.80;;;-3.40;99.90;;;;;;5012073;28;20188;-77
2021/01/16 09:52:32;;;;;;;40.67;22.63;;;-3.30;99.90;;;;;;5016905;28;20215;-78
2021/01/16 09:54:59;;;;;;;49.17;24.53;;;-3.30;99.90;;;;;;5015096;28;20203;-77
2021/01/16 09:57:35;;;;;;;43.40;23.43;;;-3.20;99.90;;;;;;5003234;28;20195;-77
2021/01/16 10:00:15;;;;;;;47.13;24.20;;;-3.20;99.90;;;;;;5029651;28;20188;-77
2021/01/16 10:02:46;;;;;;;37.83;20.40;;;-3.10;99.90;;;;;;5032144;28;20190;-77
2021/01/16 10:05:27;;;;;;;34.67;20.30;;;-3.10;99.90;;;;;;5033552;28;20183;-78
2021/01/16 10:07:53;;;;;;;32.33;18.90;;;-3.10;99.90;;;;;;5033256;28;20548;-77
2021/01/16 10:10:19;;;;;;;36.87;20.93;;;-3.10;99.90;;;;;;5031624;28;20181;-78
2021/01/16 10:12:47;;;;;;;36.83;21.57;;;-3.00;99.90;;;;;;5015404;28;20197;-81
2021/01/16 10:15:18;;;;;;;34.37;19.80;;;-3.00;99.90;;;;;;5033273;28;20284;-76
2021/01/16 10:17:52;;;;;;;40.37;21.30;;;-3.00;99.90;;;;;;5036477;28;20178;-78
2021/01/16 10:20:18;;;;;;;38.80;21.77;;;-2.90;99.90;;;;;;5037514;28;20220;-78
2021/01/16 10:22:48;;;;;;;32.43;19.03;;;-2.90;99.90;;;;;;5034975;28;20203;-78
2021/01/16 10:25:15;;;;;;;32.37;19.37;;;-2.80;99.90;;;;;;5038004;28;20202;-78
2021/01/16 10:27:49;;;;;;;38.10;20.97;;;-2.90;99.90;;;;;;5030531;28;20178;-78
2021/01/16 10:30:19;;;;;;;38.33;21.47;;;-2.80;99.90;;;;;;5024860;28;20582;-77
2021/01/16 10:32:46;;;;;;;38.30;21.40;;;-2.80;99.90;;;;;;5018393;28;20203;-77
2021/01/16 10:35:30;;;;;;;37.07;20.90;;;-2.80;99.90;;;;;;5037848;28;20194;-78
2021/01/16 10:38:01;;;;;;;36.13;20.80;;;-2.80;99.90;;;;;;5040589;28;20201;-78
2021/01/16 10:40:29;;;;;;;36.77;20.63;;;-2.70;99.90;;;;;;5024755;28;20171;-79
2021/01/16 10:42:59;;;;;;;35.43;20.93;;;-2.80;99.90;;;;;;5043496;28;20641;-79
2021/01/16 10:46:04;;;;;;;35.87;20.37;;;-2.70;99.90;;;;;;5045957;28;20244;-77
2021/01/16 10:48:37;;;;;;;36.77;20.47;;;-2.70;99.90;;;;;;5048203;28;20182;-79
2021/01/16 10:51:05;;;;;;;33.60;20.17;;;-2.70;99.90;;;;;;5029656;28;20260;-79
2021/01/16 10:53:43;;;;;;;36.00;21.27;;;-2.60;99.90;;;;;;5040831;28;20178;-78
2021/01/16 10:56:14;;;;;;;39.83;21.13;;;-2.60;99.90;;;;;;5041476;28;20560;-79
2021/01/16 10:58:40;;;;;;;39.83;20.20;;;-2.50;99.90;;;;;;5041388;28;20176;-78
2021/01/16 11:01:09;;;;;;;34.70;19.30;;;-2.50;99.90;;;;;;5039702;28;20661;-78
2021/01/16 11:03:36;;;;;;;38.87;20.87;;;-2.40;99.90;;;;;;5021536;28;20178;-78
2021/01/16 11:06:06;;;;;;;40.97;21.33;;;-2.30;99.90;;;;;;5039282;28;20249;-77
2021/01/16 11:08:35;;;;;;;34.73;20.63;;;-2.20;99.90;;;;;;5038680;28;20684;-78
2021/01/16 11:11:01;;;;;;;34.47;20.13;;;-2.20;99.90;;;;;;5037970;28;20202;-78
2021/01/16 11:13:28;;;;;;;36.20;20.47;;;-2.20;99.90;;;;;;5036907;28;20278;-77
2021/01/16 11:16:24;;;;;;;40.00;21.67;;;-2.20;99.90;;;;;;5036646;28;20196;-78
2021/01/16 11:18:50;;;;;;;32.47;19.80;;;-2.20;99.90;;;;;;5036516;28;20175;-75
2021/01/16 11:21:39;;;;;;;38.47;19.90;;;-2.10;99.90;;;;;;5036525;28;20557;-77
2021/01/16 11:24:42;;;;;;;38.20;20.57;;;-2.20;99.90;;;;;;5036232;28;20164;-76
2021/01/16 11:27:09;;;;;;;34.20;19.80;;;-2.10;99.90;;;;;;5033061;28;20183;-75
2021/01/16 11:29:42;;;;;;;35.90;19.53;;;-2.10;99.90;;;;;;5031340;28;20184;-76
2021/01/16 11:32:19;;;;;;;30.33;18.93;;;-1.90;99.90;;;;;;5036381;28;20666;-75
2021/01/16 11:35:03;;;;;;;33.27;19.33;;;-1.90;99.90;;;;;;5036537;28;20257;-76
2021/01/16 11:37:45;;;;;;;34.83;19.27;;;-1.90;99.90;;;;;;5033863;28;20195;-75
2021/01/16 11:40:46;;;;;;;34.20;19.73;;;-1.90;99.90;;;;;;5040156;28;20207;-76
2021/01/16 11:43:13;;;;;;;43.27;22.03;;;-1.80;99.90;;;;;;4984276;28;20231;-74
2021/01/16 11:45:38;;;;;;;37.90;20.93;;;-1.80;99.90;;;;;;5033032;28;20208;-76
2021/01/16 11:48:06;;;;;;;34.80;20.80;;;-1.80;99.90;;;;;;5036199;28;20223;-76
2021/01/16 11:50:37;;;;;;;35.00;21.50;;;-1.80;99.90;;;;;;5035874;28;20178;-75
2021/01/16 11:53:11;;;;;;;34.53;19.37;;;-1.80;99.90;;;;;;5035422;28;20194;-75
2021/01/16 11:55:37;;;;;;;35.53;19.90;;;-1.70;99.90;;;;;;5034860;28;20191;-73
2021/01/16 11:58:04;;;;;;;37.13;21.47;;;-1.70;99.90;;;;;;5035673;28;20177;-76
2021/01/16 12:00:30;;;;;;;37.50;21.17;;;-1.70;99.90;;;;;;5035742;28;20173;-76
2021/01/16 12:02:57;;;;;;;32.43;20.23;;;-1.80;99.90;;;;;;5034473;28;20202;-77
2021/01/16 12:05:25;;;;;;;38.27;21.17;;;-1.80;99.90;;;;;;5035600;28;20708;-76
2021/01/16 12:07:55;;;;;;;37.37;20.47;;;-1.80;99.90;;;;;;5035436;28;20269;-75
2021/01/16 12:10:25;;;;;;;33.30;19.87;;;-1.90;99.90;;;;;;5035642;28;20235;-75
2021/01/16 12:12:51;;;;;;;33.63;19.30;;;-1.90;99.90;;;;;;5017624;28;20203;-76
2021/01/16 12:15:22;;;;;;;37.43;20.50;;;-1.80;99.90;;;;;;5035571;28;20280;-75
2021/01/16 12:17:49;;;;;;;37.27;21.30;;;-1.90;99.90;;;;;;5035728;28;20541;-76
2021/01/16 12:20:16;;;;;;;35.50;20.83;;;-1.90;99.90;;;;;;5035242;28;20175;-75
2021/01/16 12:22:43;;;;;;;38.97;21.47;;;-1.90;99.90;;;;;;5017617;28;20201;-77
2021/01/16 12:25:12;;;;;;;40.37;22.37;;;-1.80;99.90;;;;;;5035534;28;20181;-74
2021/01/16 12:27:53;;;;;;;34.20;20.63;;;-1.80;99.90;;;;;;5027910;28;20186;-75
2021/01/16 12:30:20;;;;;;;40.43;22.00;;;-1.80;99.90;;;;;;5022251;28;20175;-76
2021/01/16 12:32:48;;;;;;;37.47;21.40;;;-1.80;99.90;;;;;;5035420;28;20199;-76
2021/01/16 12:35:15;;;;;;;38.03;21.30;;;-1.80;99.90;;;;;;5035137;28;20221;-75
2021/01/16 12:37:42;;;;;;;40.17;21.90;;;-1.80;99.90;;;;;;5036902;28;20181;-76
2021/01/16 12:40:22;;;;;;;39.87;21.27;;;-1.90;99.90;;;;;;5017051;28;20539;-75
2021/01/16 12:42:49;;;;;;;37.00;21.47;;;-1.90;99.90;;;;;;5034583;28;20200;-76
2021/01/16 12:45:20;;;;;;;37.83;22.67;;;-2.00;99.90;;;;;;5017048;28;20552;-76